createdAt,value
2022-12-14T00:01:34.753Z,54.13
2022-12-14T00:04:01.432Z,55.07
2022-12-14T00:06:30.512Z,53.37
2022-12-14T00:09:00.376Z,58.63
2022-12-14T00:11:28.571Z,66.07
2022-12-14T00:14:00.601Z,51.23
2022-12-14T00:16:30.026Z,56.47
2022-12-14T00:18:59.524Z,59.40
2022-12-14T00:21:26.912Z,58.93
2022-12-14T00:23:54.831Z,54.83
2022-12-14T00:26:24.291Z,63.03
2022-12-14T00:28:53.552Z,58.60
2022-12-14T00:31:21.268Z,55.83
2022-12-14T00:33:48.320Z,53.90
2022-12-14T00:36:15.215Z,56.00
2022-12-14T00:38:42.478Z,49.17
2022-12-14T00:41:10.221Z,53.13
2022-12-14T00:43:37.242Z,56.00
2022-12-14T00:46:04.128Z,54.30
2022-12-14T00:48:31.780Z,51.70
2022-12-14T00:50:58.955Z,48.77
2022-12-14T00:53:26.317Z,53.77
2022-12-14T00:55:52.992Z,47.50
2022-12-14T00:58:22.383Z,50.23
2022-12-14T01:01:02.802Z,52.30
2022-12-14T01:03:29.964Z,48.10
2022-12-14T01:05:57.142Z,53.20
2022-12-14T01:08:24.738Z,49.70
2022-12-14T01:10:52.315Z,52.80
2022-12-14T01:13:19.324Z,51.53
2022-12-14T01:15:46.081Z,52.07
2022-12-14T01:18:13.059Z,50.37
2022-12-14T01:20:42.497Z,57.20
2022-12-14T01:23:09.257Z,52.83
2022-12-14T01:25:35.973Z,49.13
2022-12-14T01:28:02.853Z,52.03
2022-12-14T01:30:29.584Z,55.77
2022-12-14T01:32:56.270Z,49.30
2022-12-14T01:35:23.005Z,56.93
2022-12-14T01:37:52.111Z,51.17
2022-12-14T01:40:18.876Z,51.63
2022-12-14T01:42:45.535Z,51.93
2022-12-14T01:45:19.856Z,57.17
2022-12-14T01:47:53.825Z,61.97
2022-12-14T01:50:35.121Z,55.03
2022-12-14T01:53:06.675Z,54.23
2022-12-14T01:55:40.128Z,54.10
2022-12-14T01:58:18.587Z,59.77
2022-12-14T02:00:45.560Z,52.10
2022-12-14T02:03:51.162Z,49.77
2022-12-14T02:06:22.558Z,50.50
2022-12-14T02:08:52.279Z,48.80
2022-12-14T02:11:29.142Z,52.00
2022-12-14T02:13:55.828Z,51.03
2022-12-14T02:16:23.048Z,51.90
2022-12-14T02:18:49.752Z,51.07
2022-12-14T02:21:38.971Z,57.70
2022-12-14T02:24:47.046Z,58.60
2022-12-14T02:27:21.557Z,55.67
2022-12-14T02:30:10.309Z,56.27
2022-12-14T02:32:40.047Z,58.87
2022-12-14T02:35:34.201Z,57.57
2022-12-14T02:38:11.438Z,58.27
2022-12-14T02:41:17.825Z,55.20
2022-12-14T02:43:50.967Z,66.03
2022-12-14T02:46:39.349Z,62.47
2022-12-14T02:49:25.394Z,65.90
2022-12-14T02:52:08.536Z,61.47
2022-12-14T02:54:58.722Z,68.33
2022-12-14T02:58:10.896Z,66.30
2022-12-14T03:00:38.270Z,55.47
2022-12-14T03:03:06.182Z,65.73
2022-12-14T03:05:33.447Z,63.23
2022-12-14T03:08:11.540Z,59.30
2022-12-14T03:10:50.575Z,66.53
2022-12-14T03:13:29.918Z,65.43
2022-12-14T03:16:24.207Z,64.00
2022-12-14T03:18:57.205Z,64.53
2022-12-14T03:21:28.835Z,67.83
2022-12-14T03:23:57.794Z,60.53
2022-12-14T03:26:36.769Z,55.10
2022-12-14T03:29:18.770Z,73.37
2022-12-14T03:31:58.250Z,66.80
2022-12-14T03:34:31.508Z,79.90
2022-12-14T03:37:10.643Z,68.77
2022-12-14T03:39:39.653Z,72.43
2022-12-14T03:42:20.770Z,69.87
2022-12-14T03:45:03.506Z,72.27
2022-12-14T03:47:39.022Z,61.40
2022-12-14T03:50:23.682Z,60.67
2022-12-14T03:53:11.030Z,67.33
2022-12-14T03:56:00.580Z,60.67
2022-12-14T03:58:36.475Z,66.27
2022-12-14T04:01:30.629Z,57.93
2022-12-14T04:04:03.590Z,60.53
2022-12-14T04:06:35.984Z,63.67
2022-12-14T04:09:17.769Z,65.83
2022-12-14T04:12:10.045Z,64.47
2022-12-14T04:15:00.595Z,57.20
2022-12-14T04:17:52.632Z,72.47
2022-12-14T04:20:33.568Z,64.37
2022-12-14T04:23:14.412Z,59.77
2022-12-14T04:26:05.388Z,61.80
2022-12-14T04:28:57.661Z,62.30
2022-12-14T04:31:29.574Z,65.53
2022-12-14T04:33:59.991Z,72.40
2022-12-14T04:36:29.645Z,73.47
2022-12-14T04:39:11.147Z,63.50
2022-12-14T04:41:43.663Z,63.00
2022-12-14T04:44:17.547Z,70.33
2022-12-14T04:46:45.727Z,72.43
2022-12-14T04:49:37.062Z,71.93
2022-12-14T04:52:21.681Z,65.77
2022-12-14T04:55:12.281Z,63.33
2022-12-14T04:57:42.776Z,63.03
2022-12-14T05:00:10.372Z,68.90
2022-12-14T05:02:42.938Z,64.97
2022-12-14T05:05:25.013Z,62.80
2022-12-14T05:08:32.394Z,62.00
2022-12-14T05:11:49.674Z,58.90
2022-12-14T05:13:56.458Z,67.97
2022-12-14T05:16:24.966Z,62.97
2022-12-14T05:18:51.815Z,59.73
2022-12-14T05:21:37.319Z,60.80
2022-12-14T05:24:04.814Z,64.77
2022-12-14T05:26:31.797Z,58.63
2022-12-14T05:28:58.610Z,63.63
2022-12-14T05:31:25.775Z,57.53
2022-12-14T05:33:52.584Z,66.43
2022-12-14T05:36:19.702Z,61.63
2022-12-14T05:38:46.743Z,55.53
2022-12-14T05:41:14.178Z,58.37
2022-12-14T05:43:41.455Z,55.50
2022-12-14T05:46:08.404Z,57.67
2022-12-14T05:48:35.310Z,62.50
2022-12-14T05:51:10.257Z,65.50
2022-12-14T05:53:37.917Z,63.03
2022-12-14T05:56:06.576Z,64.23
2022-12-14T05:58:34.790Z,58.87
2022-12-14T06:01:03.753Z,62.60
2022-12-14T06:03:30.737Z,61.37
2022-12-14T06:06:05.626Z,61.23
2022-12-14T06:08:34.098Z,51.47
2022-12-14T06:11:09.386Z,52.27
2022-12-14T06:13:37.577Z,56.40
2022-12-14T06:16:13.391Z,59.57
2022-12-14T06:18:53.882Z,52.00
2022-12-14T06:21:23.617Z,64.93
2022-12-14T06:23:54.851Z,52.63
2022-12-14T06:26:22.919Z,60.40
2022-12-14T06:28:49.937Z,54.87
2022-12-14T06:31:22.033Z,55.60
2022-12-14T06:33:49.134Z,56.20
2022-12-14T06:36:26.864Z,61.03
2022-12-14T06:38:59.846Z,64.03
2022-12-14T06:41:26.564Z,62.87
2022-12-14T06:43:53.756Z,74.45
2022-12-14T06:46:22.223Z,60.60
2022-12-14T06:48:51.101Z,60.63
2022-12-14T06:51:17.864Z,62.43
2022-12-14T06:53:44.717Z,59.73
2022-12-14T06:56:13.797Z,54.50
2022-12-14T06:58:41.225Z,60.23
2022-12-14T07:01:13.331Z,58.50
2022-12-14T07:03:43.449Z,52.17
2022-12-14T07:06:10.591Z,57.30
2022-12-14T07:08:38.816Z,58.10
2022-12-14T07:11:11.234Z,59.43
2022-12-14T07:13:38.758Z,55.17
2022-12-14T07:16:07.307Z,58.23
2022-12-14T07:18:34.711Z,56.80
2022-12-14T07:21:12.124Z,62.57
2022-12-14T07:23:40.234Z,61.50
2022-12-14T07:26:17.011Z,58.00
2022-12-14T07:28:44.738Z,54.60
2022-12-14T07:31:22.725Z,55.43
2022-12-14T07:33:52.068Z,58.83
2022-12-14T07:36:20.589Z,58.87
2022-12-14T07:38:48.868Z,57.20
2022-12-14T07:41:22.079Z,57.37
2022-12-14T07:43:50.215Z,57.43
2022-12-14T07:46:20.451Z,52.47
2022-12-14T07:48:50.769Z,58.20
2022-12-14T07:51:20.566Z,57.47
2022-12-14T07:53:47.536Z,55.67
2022-12-14T07:56:17.106Z,53.50
2022-12-14T07:58:44.021Z,59.57
2022-12-14T08:01:14.958Z,68.90
2022-12-14T08:03:53.539Z,75.43
2022-12-14T08:06:22.397Z,59.30
2022-12-14T08:08:49.698Z,66.93
2022-12-14T08:11:16.955Z,52.33
2022-12-14T08:13:43.960Z,53.10
2022-12-14T08:16:16.713Z,53.93
2022-12-14T08:18:44.062Z,51.63
2022-12-14T08:21:12.383Z,54.40
2022-12-14T08:23:41.355Z,57.43
2022-12-14T08:26:08.878Z,59.97
2022-12-14T08:28:36.392Z,54.90
2022-12-14T08:31:12.612Z,56.83
2022-12-14T08:33:40.709Z,58.93
2022-12-14T08:36:09.734Z,55.50
2022-12-14T08:38:37.454Z,57.03
2022-12-14T08:41:13.090Z,59.73
2022-12-14T08:43:40.651Z,57.67
2022-12-14T08:46:10.888Z,70.73
2022-12-14T08:48:38.164Z,84.47
2022-12-14T08:51:07.674Z,81.30
2022-12-14T08:53:35.717Z,74.07
2022-12-14T08:56:07.370Z,77.67
2022-12-14T08:58:35.037Z,75.93
2022-12-14T09:01:25.771Z,69.73
2022-12-14T09:03:56.945Z,76.67
2022-12-14T09:06:27.825Z,66.73
2022-12-14T09:08:55.546Z,64.47
2022-12-14T09:11:22.863Z,67.27
2022-12-14T09:13:54.168Z,68.33
2022-12-14T09:16:22.416Z,72.20
2022-12-14T09:18:50.456Z,76.03
2022-12-14T09:21:18.133Z,73.77
2022-12-14T09:23:45.784Z,52.63
2022-12-14T09:26:18.612Z,61.13
2022-12-14T09:28:53.549Z,50.57
2022-12-14T09:31:22.469Z,57.03
2022-12-14T09:33:49.821Z,52.60
2022-12-14T09:36:23.017Z,56.70
2022-12-14T09:38:52.014Z,50.60
2022-12-14T09:41:34.761Z,59.37
2022-12-14T09:44:04.510Z,48.30
2022-12-14T09:46:39.905Z,49.23
2022-12-14T09:49:33.589Z,47.43
2022-12-14T09:52:03.216Z,47.70
2022-12-14T09:54:37.139Z,51.73
2022-12-14T09:57:30.254Z,56.37
2022-12-14T09:59:57.241Z,51.40
2022-12-14T10:03:00.367Z,48.83
2022-12-14T10:05:52.727Z,60.50
2022-12-14T10:08:36.421Z,61.57
2022-12-14T10:11:14.871Z,50.33
2022-12-14T10:13:50.310Z,64.00
2022-12-14T10:16:31.729Z,53.23
2022-12-14T10:19:40.565Z,56.43
2022-12-14T10:22:12.945Z,50.67
2022-12-14T10:24:46.041Z,50.77
2022-12-14T10:27:22.634Z,50.20
2022-12-14T10:30:04.669Z,49.67
2022-12-14T10:32:39.858Z,47.47
2022-12-14T10:35:18.821Z,45.63
2022-12-14T10:37:51.590Z,44.27
2022-12-14T10:40:33.111Z,53.10
2022-12-14T10:43:21.818Z,40.10
2022-12-14T10:46:10.034Z,44.47
2022-12-14T10:49:11.049Z,42.10
2022-12-14T10:51:43.055Z,47.57
2022-12-14T10:54:18.847Z,45.90
2022-12-14T10:56:50.024Z,50.60
2022-12-14T11:01:48.069Z,49.70
2022-12-14T11:04:35.254Z,44.07
2022-12-14T11:07:11.365Z,41.13
2022-12-14T11:09:39.318Z,46.77
2022-12-14T11:12:21.633Z,51.43
2022-12-14T11:14:58.052Z,38.23
2022-12-14T11:17:43.295Z,39.57
2022-12-14T11:20:18.633Z,40.13
2022-12-14T11:22:52.562Z,43.10
2022-12-14T11:25:39.480Z,42.17
2022-12-14T11:28:37.534Z,44.47
2022-12-14T11:31:11.960Z,36.50
2022-12-14T11:33:44.883Z,40.97
2022-12-14T11:36:36.539Z,43.33
2022-12-14T11:39:26.470Z,39.47
2022-12-14T11:42:02.719Z,34.97
2022-12-14T11:44:33.491Z,37.27
2022-12-14T11:47:00.374Z,36.07
2022-12-14T11:49:28.626Z,35.90
2022-12-14T11:52:02.072Z,36.67
2022-12-14T11:54:28.975Z,40.63
2022-12-14T11:57:01.500Z,36.83
2022-12-14T11:59:37.700Z,40.50
2022-12-14T12:02:24.284Z,37.67
2022-12-14T12:05:05.538Z,37.37
2022-12-14T12:07:35.226Z,40.20
2022-12-14T12:10:16.136Z,43.63
2022-12-14T12:12:54.093Z,44.37
2022-12-14T12:15:35.308Z,39.00
2022-12-14T12:18:13.128Z,47.60
2022-12-14T12:20:51.315Z,54.07
2022-12-14T12:23:38.211Z,38.77
2022-12-14T12:26:32.095Z,40.87
2022-12-14T12:29:05.353Z,38.07
2022-12-14T12:31:54.708Z,41.27
2022-12-14T12:34:32.766Z,41.47
2022-12-14T12:37:25.893Z,38.00
2022-12-14T12:39:56.799Z,48.27
2022-12-14T12:42:35.860Z,46.70
2022-12-14T12:45:19.156Z,42.43
2022-12-14T12:48:02.681Z,43.03
2022-12-14T12:50:39.756Z,41.00
2022-12-14T12:53:44.526Z,39.30
2022-12-14T12:56:17.145Z,39.90
2022-12-14T12:58:52.420Z,40.00
2022-12-14T13:01:23.140Z,37.63
2022-12-14T13:03:53.650Z,39.17
2022-12-14T13:07:01.534Z,40.97
2022-12-14T13:09:48.717Z,40.13
2022-12-14T13:12:35.183Z,40.60
2022-12-14T13:15:06.021Z,42.73
2022-12-14T13:17:49.586Z,40.03
2022-12-14T13:20:27.062Z,36.00
2022-12-14T13:22:54.993Z,35.20
2022-12-14T13:25:38.032Z,35.67
2022-12-14T13:28:18.899Z,38.30
2022-12-14T13:31:06.637Z,41.00
2022-12-14T13:33:51.155Z,40.63
2022-12-14T13:36:33.881Z,36.30
2022-12-14T13:39:45.402Z,39.87
2022-12-14T13:42:52.511Z,34.40
2022-12-14T13:45:28.478Z,34.37
2022-12-14T13:47:57.771Z,34.00
2022-12-14T13:50:37.086Z,35.83
2022-12-14T13:53:18.399Z,43.00
2022-12-14T13:55:52.964Z,36.90
2022-12-14T13:58:33.358Z,36.07
2022-12-14T14:01:25.552Z,34.47
2022-12-14T14:03:54.344Z,37.50
2022-12-14T14:06:35.737Z,43.20
2022-12-14T14:09:28.658Z,43.00
2022-12-14T14:12:18.808Z,38.77
2022-12-14T14:14:57.447Z,34.60
2022-12-14T14:17:27.924Z,37.03
2022-12-14T14:19:56.806Z,37.80
2022-12-14T14:22:28.837Z,33.97
2022-12-14T14:25:02.603Z,38.53
2022-12-14T14:27:32.133Z,31.67
2022-12-14T14:29:58.974Z,39.80
2022-12-14T14:32:37.065Z,36.03
2022-12-14T14:35:25.450Z,38.30
2022-12-14T14:38:01.963Z,45.10
2022-12-14T14:41:06.372Z,32.80
2022-12-14T14:43:26.626Z,36.07
2022-12-14T14:45:56.207Z,37.03
2022-12-14T14:48:34.729Z,33.57
2022-12-14T14:51:14.979Z,34.23
2022-12-14T14:53:41.904Z,40.87
2022-12-14T14:56:30.496Z,37.90
2022-12-14T14:59:19.309Z,36.63
2022-12-14T15:02:03.364Z,40.13
2022-12-14T15:04:43.891Z,43.50
2022-12-14T15:07:19.785Z,40.40
2022-12-14T15:10:07.878Z,36.00
2022-12-14T15:13:02.714Z,38.20
2022-12-14T15:15:45.710Z,43.50
2022-12-14T15:18:24.758Z,42.73
2022-12-14T15:21:12.958Z,38.93
2022-12-14T15:23:49.463Z,39.67
2022-12-14T15:26:19.407Z,39.10
2022-12-14T15:28:51.402Z,37.87
2022-12-14T15:31:27.592Z,43.37
2022-12-14T15:33:54.798Z,54.43
2022-12-14T15:36:30.694Z,43.60
2022-12-14T15:38:58.326Z,43.27
2022-12-14T15:41:28.796Z,44.97
2022-12-14T15:43:59.779Z,39.97
2022-12-14T15:46:30.748Z,40.77
2022-12-14T15:49:20.805Z,42.37
2022-12-14T15:51:48.113Z,53.53
2022-12-14T15:54:21.059Z,43.07
2022-12-14T15:56:51.882Z,40.67
2022-12-14T15:59:33.608Z,51.27
2022-12-14T16:02:15.307Z,45.87
2022-12-14T16:04:43.064Z,50.67
2022-12-14T16:07:18.633Z,51.53
2022-12-14T16:09:53.697Z,51.13
2022-12-14T16:12:48.063Z,50.63
2022-12-14T16:15:24.565Z,40.93
2022-12-14T16:18:00.696Z,45.00
2022-12-14T16:20:31.867Z,47.33
2022-12-14T16:23:06.317Z,55.97
2022-12-14T16:25:36.981Z,43.83
2022-12-14T16:28:22.019Z,45.37
2022-12-14T16:30:54.728Z,42.67
2022-12-14T16:33:23.146Z,43.77
2022-12-14T16:36:07.272Z,44.00
2022-12-14T16:38:40.419Z,43.57
2022-12-14T16:41:07.614Z,58.57
2022-12-14T16:43:37.873Z,64.93
2022-12-14T16:46:04.656Z,59.90
2022-12-14T16:48:33.419Z,58.00
2022-12-14T16:51:18.766Z,56.17
2022-12-14T16:53:55.861Z,61.53
2022-12-14T16:56:25.959Z,49.77
2022-12-14T16:59:19.687Z,61.60
2022-12-14T17:01:49.975Z,55.27
2022-12-14T17:04:18.577Z,81.20
2022-12-14T17:06:52.806Z,70.30
2022-12-14T17:09:28.059Z,92.97
2022-12-14T17:11:58.965Z,74.33
2022-12-14T17:14:27.326Z,81.70
2022-12-14T17:17:00.851Z,67.20
2022-12-14T17:19:35.506Z,63.07
2022-12-14T17:22:05.171Z,91.37
2022-12-14T17:24:35.868Z,101.67
2022-12-14T17:27:03.206Z,82.20
2022-12-14T17:29:33.924Z,78.50
2022-12-14T17:32:02.728Z,72.27
2022-12-14T17:34:30.624Z,85.83
2022-12-14T17:36:57.699Z,74.50
2022-12-14T17:39:24.884Z,70.87
2022-12-14T17:41:52.309Z,65.20
2022-12-14T17:44:21.524Z,90.43
2022-12-14T17:46:52.143Z,96.83
2022-12-14T17:49:33.957Z,67.40
2022-12-14T17:52:04.253Z,71.27
2022-12-14T17:54:31.872Z,64.87
2022-12-14T17:56:58.940Z,55.87
2022-12-14T17:59:25.756Z,58.73
2022-12-14T18:01:52.560Z,58.10
2022-12-14T18:04:19.593Z,50.45
2022-12-14T18:06:46.285Z,59.10
2022-12-14T18:09:12.984Z,55.90
2022-12-14T18:12:00.317Z,66.60
2022-12-14T18:14:26.335Z,60.20
2022-12-14T18:16:53.901Z,65.77
2022-12-14T18:19:20.559Z,55.60
2022-12-14T18:21:47.246Z,57.40
2022-12-14T18:24:18.182Z,56.43
2022-12-14T18:26:48.098Z,69.70
2022-12-14T18:29:16.026Z,45.43
2022-12-14T18:31:43.310Z,46.43
2022-12-14T18:34:12.178Z,45.40
2022-12-14T18:36:39.510Z,50.00
2022-12-14T18:39:07.608Z,45.60
2022-12-14T18:41:34.717Z,49.77
2022-12-14T18:44:01.834Z,47.13
2022-12-14T18:46:28.584Z,49.27
2022-12-14T18:48:59.284Z,50.90
2022-12-14T18:51:26.996Z,56.90
2022-12-14T18:53:55.600Z,51.40
2022-12-14T18:56:28.015Z,50.10
2022-12-14T18:58:54.811Z,57.87
2022-12-14T19:01:24.259Z,58.90
2022-12-14T19:03:51.697Z,51.93
2022-12-14T19:09:08.255Z,54.67
2022-12-14T19:11:44.412Z,55.40
2022-12-14T19:14:12.135Z,52.03
2022-12-14T19:16:39.072Z,53.77
2022-12-14T19:19:05.947Z,62.13
2022-12-14T19:21:32.644Z,53.10
2022-12-14T19:23:59.870Z,55.50
2022-12-14T19:26:28.322Z,57.73
2022-12-14T19:28:55.153Z,59.40
2022-12-14T19:31:21.974Z,62.03
2022-12-14T19:33:48.714Z,65.43
2022-12-14T19:36:15.539Z,66.00
2022-12-14T19:38:42.513Z,62.93
2022-12-14T19:41:12.268Z,82.43
2022-12-14T19:43:39.395Z,74.93
2022-12-14T19:46:10.492Z,93.50
2022-12-14T19:48:38.163Z,58.93
2022-12-14T19:51:06.677Z,55.57
2022-12-14T19:53:34.721Z,59.93
2022-12-14T19:56:01.814Z,64.07
2022-12-14T19:58:29.149Z,76.47
2022-12-14T20:00:56.322Z,68.20
2022-12-14T20:03:23.819Z,66.83
2022-12-14T20:05:56.103Z,69.50
2022-12-14T20:08:23.498Z,67.10
2022-12-14T20:10:53.066Z,75.90
2022-12-14T20:13:21.553Z,64.93
2022-12-14T20:15:58.198Z,76.60
2022-12-14T20:18:26.343Z,72.20
2022-12-14T20:20:53.193Z,70.87
2022-12-14T20:23:22.001Z,71.80
2022-12-14T20:25:49.027Z,72.47
2022-12-14T20:28:15.754Z,68.87
2022-12-14T20:30:44.583Z,69.27
2022-12-14T20:33:11.370Z,60.77
2022-12-14T20:35:38.238Z,65.27
2022-12-14T20:38:05.038Z,67.73
2022-12-14T20:40:38.092Z,63.37
2022-12-14T20:43:06.895Z,66.53
2022-12-14T20:45:41.198Z,63.70
2022-12-14T20:48:08.956Z,50.63
2022-12-14T20:50:37.533Z,61.17
2022-12-14T20:53:05.303Z,56.97
2022-12-14T20:55:32.970Z,50.43
2022-12-14T20:57:59.738Z,55.43
2022-12-14T21:00:26.794Z,55.73
2022-12-14T21:02:53.830Z,55.10
2022-12-14T21:05:20.652Z,53.90
2022-12-14T21:07:47.394Z,65.93
2022-12-14T21:10:14.132Z,60.83
2022-12-14T21:12:40.802Z,60.13
2022-12-14T21:15:07.951Z,65.27
2022-12-14T21:17:34.735Z,63.47
2022-12-14T21:20:01.682Z,62.67
2022-12-14T21:22:30.291Z,65.03
2022-12-14T21:25:06.443Z,62.80
2022-12-14T21:27:34.759Z,58.63
2022-12-14T21:30:01.948Z,53.67
2022-12-14T21:32:28.670Z,60.67
2022-12-14T21:34:55.395Z,49.93
2022-12-14T21:37:22.228Z,61.33
2022-12-14T21:39:54.891Z,53.67
2022-12-14T21:42:26.067Z,50.07
2022-12-14T21:44:54.037Z,51.57
2022-12-14T21:47:29.047Z,56.90
2022-12-14T21:49:55.841Z,48.60
2022-12-14T21:52:25.175Z,51.47
2022-12-14T21:54:51.844Z,47.63
2022-12-14T21:57:42.789Z,49.83
2022-12-14T22:00:10.689Z,42.57
2022-12-14T22:02:37.532Z,41.13
2022-12-14T22:05:04.737Z,38.00
2022-12-14T22:07:33.733Z,37.30
2022-12-14T22:10:00.682Z,39.23
2022-12-14T22:12:27.448Z,36.67
2022-12-14T22:14:54.266Z,38.53
2022-12-14T22:17:20.939Z,38.03
2022-12-14T22:19:48.948Z,31.70
2022-12-14T22:22:17.030Z,39.63
2022-12-14T22:24:44.913Z,36.07
2022-12-14T22:27:12.654Z,37.47
2022-12-14T22:29:39.615Z,38.77
2022-12-14T22:32:07.289Z,41.47
2022-12-14T22:34:34.270Z,39.03
2022-12-14T22:37:01.185Z,40.97
2022-12-14T22:39:27.947Z,36.33
2022-12-14T22:41:54.712Z,33.07
2022-12-14T22:44:21.399Z,32.37
2022-12-14T22:46:48.054Z,31.30
2022-12-14T22:49:19.059Z,31.63
2022-12-14T22:51:46.216Z,33.03
2022-12-14T22:54:27.510Z,31.87
2022-12-14T22:57:02.424Z,31.67
2022-12-14T22:59:41.845Z,29.63
2022-12-14T23:02:08.825Z,28.43
2022-12-14T23:04:37.439Z,25.87
2022-12-14T23:07:04.901Z,29.70
2022-12-14T23:09:50.485Z,35.10
2022-12-14T23:12:35.889Z,32.47
2022-12-14T23:15:21.470Z,26.40
2022-12-14T23:18:06.817Z,29.13
2022-12-14T23:20:52.410Z,34.87
2022-12-14T23:23:37.849Z,25.07
2022-12-14T23:26:23.370Z,36.57
2022-12-14T23:29:08.900Z,31.30
2022-12-14T23:31:54.634Z,34.23
2022-12-14T23:34:39.895Z,28.33
2022-12-14T23:37:25.489Z,28.33
2022-12-14T23:40:10.970Z,25.67
2022-12-14T23:42:56.415Z,29.20
2022-12-14T23:45:41.669Z,30.63
2022-12-14T23:48:27.359Z,29.20
2022-12-14T23:51:12.822Z,30.63
2022-12-14T23:53:58.197Z,32.20
2022-12-14T23:56:43.786Z,30.30
2022-12-14T23:59:32.460Z,30.50
